Time;durP1;ratioP1;P1;durP2;ratioP2;P2;SDS_P1;SDS_P2;PMS_P1;PMS_P2;Temp;Humidity;BMP_temperature;BMP_pressure;BME280_temperature;BME280_humidity;BME280_pressure;Samples;Min_cycle;Max_cycle;Signal;HPM_P1;HPM_P2
2023/08/03 19:59:10;;;;;;;;;9.25;9.25;;;;;;;;5104892;27;14511;-80
2023/08/03 20:01:36;;;;;;;;;10.33;10.00;;;;;;;;5108128;28;8834;-76
2023/08/03 20:04:02;;;;;;;;;9.00;9.00;;;;;;;;5103188;28;9560;-76
2023/08/03 20:06:27;;;;;;;;;13.00;11.33;;;;;;;;5096812;28;8790;-76
2023/08/03 20:08:54;;;;;;;;;12.33;12.00;;;;;;;;5087944;28;8906;-79
2023/08/03 20:11:19;;;;;;;;;12.25;10.50;;;;;;;;5087840;28;8802;-76
2023/08/03 20:13:44;;;;;;;;;11.00;10.33;;;;;;;;5087444;28;8814;-76
2023/08/03 20:16:10;;;;;;;;;10.00;9.00;;;;;;;;5098687;27;8874;-77
2023/08/03 20:18:35;;;;;;;;;10.33;10.33;;;;;;;;5128301;27;8773;-77
2023/08/03 20:21:00;;;;;;;;;7.67;7.33;;;;;;;;5113153;27;8914;-77
2023/08/03 20:23:26;;;;;;;;;10.33;9.67;;;;;;;;5106419;28;8858;-77
2023/08/03 20:25:52;;;;;;;;;13.00;8.00;;;;;;;;5106401;28;8901;-78
2023/08/03 20:28:18;;;;;;;;;10.00;9.00;;;;;;;;5106207;28;8888;-77
2023/08/03 20:30:43;;;;;;;;;9.33;7.67;;;;;;;;5105984;28;8808;-76
2023/08/03 20:33:08;;;;;;;;;10.33;9.00;;;;;;;;5103516;28;8776;-77
2023/08/03 20:35:34;;;;;;;;;11.00;9.00;;;;;;;;5106326;28;8800;-78
2023/08/03 20:37:59;;;;;;;;;9.00;9.00;;;;;;;;5106303;28;8843;-78
2023/08/03 20:40:26;;;;;;;;;8.00;8.00;;;;;;;;5106268;28;8781;-77
2023/08/03 20:42:51;;;;;;;;;8.00;8.00;;;;;;;;5105949;28;8808;-76
2023/08/03 20:45:16;;;;;;;;;10.00;9.00;;;;;;;;5104079;28;8803;-76
2023/08/03 20:47:42;;;;;;;;;10.33;8.33;;;;;;;;5093953;28;8822;-77
2023/08/03 20:50:07;;;;;;;;;10.67;7.67;;;;;;;;5096566;28;8808;-78
2023/08/03 20:52:33;;;;;;;;;7.67;7.67;;;;;;;;5107456;28;8795;-77
2023/08/03 20:54:58;;;;;;;;;11.00;8.67;;;;;;;;5089459;22;8890;-75
2023/08/03 20:57:24;;;;;;;;;8.67;8.33;;;;;;;;5066058;28;8919;-75
2023/08/03 20:59:49;;;;;;;;;8.33;8.33;;;;;;;;5065988;28;8783;-75
2023/08/03 21:02:14;;;;;;;;;12.67;9.00;;;;;;;;5058176;28;8821;-75
2023/08/03 21:04:40;;;;;;;;;9.67;8.67;;;;;;;;5047627;28;8806;-75
2023/08/03 21:07:05;;;;;;;;;10.67;9.67;;;;;;;;5044807;28;8797;-75
2023/08/03 21:09:30;;;;;;;;;8.33;8.33;;;;;;;;5040627;28;8821;-75
2023/08/03 21:11:55;;;;;;;;;11.33;9.67;;;;;;;;5031148;28;8798;-75
2023/08/03 21:14:21;;;;;;;;;10.67;7.67;;;;;;;;5030486;28;8797;-74
2023/08/03 21:16:46;;;;;;;;;8.00;8.00;;;;;;;;5053107;28;8835;-74
2023/08/03 21:19:11;;;;;;;;;12.67;9.67;;;;;;;;5053148;28;8997;-77
2023/08/03 21:21:36;;;;;;;;;8.67;7.33;;;;;;;;5050828;28;8814;-78
2023/08/03 21:24:07;;;;;;;;;9.00;7.00;;;;;;;;5052149;28;8951;-75
2023/08/03 21:26:35;;;;;;;;;8.50;7.00;;;;;;;;5052309;28;8838;-75
2023/08/03 21:29:00;;;;;;;;;8.50;8.25;;;;;;;;5050965;28;8876;-74
2023/08/03 21:31:25;;;;;;;;;10.00;10.00;;;;;;;;5052288;28;9212;-74
2023/08/03 21:33:51;;;;;;;;;13.00;9.33;;;;;;;;5052348;28;8814;-75
2023/08/03 21:36:16;;;;;;;;;10.00;10.00;;;;;;;;5047611;28;8839;-74
2023/08/03 21:38:41;;;;;;;;;9.33;8.00;;;;;;;;5052042;28;8905;-75
2023/08/03 21:41:06;;;;;;;;;10.33;9.67;;;;;;;;5052371;28;8806;-74
2023/08/03 21:43:32;;;;;;;;;11.33;9.00;;;;;;;;5051931;28;8823;-74
2023/08/03 21:45:57;;;;;;;;;10.00;9.00;;;;;;;;5055325;28;8834;-74
2023/08/03 21:48:22;;;;;;;;;13.00;12.00;;;;;;;;5071946;28;8820;-74
2023/08/03 21:50:47;;;;;;;;;10.00;9.00;;;;;;;;5070589;28;8808;-74
2023/08/03 21:53:13;;;;;;;;;11.00;8.33;;;;;;;;5072234;28;8868;-74
2023/08/03 21:55:39;;;;;;;;;11.33;9.00;;;;;;;;5070440;28;8994;-74
2023/08/03 21:58:05;;;;;;;;;8.67;8.33;;;;;;;;5070501;28;8835;-74
2023/08/03 22:00:30;;;;;;;;;8.67;7.67;;;;;;;;5071510;28;8812;-74
2023/08/03 22:02:55;;;;;;;;;8.67;7.67;;;;;;;;5071598;28;8773;-74
2023/08/03 22:05:21;;;;;;;;;9.67;9.00;;;;;;;;5071665;28;8804;-75
2023/08/03 22:07:46;;;;;;;;;12.33;10.67;;;;;;;;5070079;28;8816;-74
2023/08/03 22:10:12;;;;;;;;;14.00;11.33;;;;;;;;5071327;28;8819;-75
2023/08/03 22:12:38;;;;;;;;;10.00;9.00;;;;;;;;5070419;28;8879;-74
2023/08/03 22:15:03;;;;;;;;;12.00;11.00;;;;;;;;5071028;28;8796;-75
2023/08/03 22:17:29;;;;;;;;;10.33;9.00;;;;;;;;5071027;28;8812;-74
2023/08/03 22:19:54;;;;;;;;;11.00;9.33;;;;;;;;5071313;28;9542;-77
2023/08/03 22:22:19;;;;;;;;;9.00;8.33;;;;;;;;5070798;28;8857;-76
2023/08/03 22:24:45;;;;;;;;;9.67;9.67;;;;;;;;5071409;28;8784;-76
2023/08/03 22:27:10;;;;;;;;;9.00;9.00;;;;;;;;5071312;28;8943;-75
2023/08/03 22:29:37;;;;;;;;;9.33;9.00;;;;;;;;5071527;28;8788;-76
2023/08/03 22:32:02;;;;;;;;;9.25;9.25;;;;;;;;5071495;28;9592;-76
2023/08/03 22:34:27;;;;;;;;;7.67;7.67;;;;;;;;5071381;28;8853;-75
2023/08/03 22:36:53;;;;;;;;;8.00;8.00;;;;;;;;5071181;28;8982;-76
2023/08/03 22:39:18;;;;;;;;;11.33;10.33;;;;;;;;5071129;28;8781;-75
2023/08/03 22:41:43;;;;;;;;;9.67;9.67;;;;;;;;5071199;28;8768;-76
2023/08/03 22:44:08;;;;;;;;;8.00;8.00;;;;;;;;5071048;28;8814;-75
2023/08/03 22:46:34;;;;;;;;;10.33;9.00;;;;;;;;5070954;28;8803;-76
2023/08/03 22:48:59;;;;;;;;;9.67;9.67;;;;;;;;5070929;28;9522;-76
2023/08/03 22:51:24;;;;;;;;;9.00;8.00;;;;;;;;5071021;28;8823;-76
2023/08/03 22:53:49;;;;;;;;;10.67;9.33;;;;;;;;5071044;28;9522;-76
2023/08/03 22:56:16;;;;;;;;;9.33;9.33;;;;;;;;5070671;28;8777;-75
2023/08/03 22:58:42;;;;;;;;;11.00;10.50;;;;;;;;5070879;28;9523;-76
2023/08/03 23:01:20;;;;;;;;;11.33;10.33;;;;;;;;5070844;28;8863;-75
2023/08/03 23:03:46;;;;;;;;;10.75;9.25;;;;;;;;5070887;28;8803;-75
2023/08/03 23:06:11;;;;;;;;;9.67;9.00;;;;;;;;5070707;28;8824;-75
2023/08/03 23:08:36;;;;;;;;;10.00;9.00;;;;;;;;5070346;28;8862;-75
2023/08/03 23:11:05;;;;;;;;;9.33;9.33;;;;;;;;5070849;28;8895;-75
2023/08/03 23:13:30;;;;;;;;;9.25;8.25;;;;;;;;5070448;28;8784;-75
2023/08/03 23:15:55;;;;;;;;;11.00;9.67;;;;;;;;5070633;28;8773;-75
2023/08/03 23:18:21;;;;;;;;;10.00;10.00;;;;;;;;5070486;28;8804;-75
2023/08/03 23:20:46;;;;;;;;;9.33;8.33;;;;;;;;5070435;28;8784;-76
2023/08/03 23:23:11;;;;;;;;;10.67;10.00;;;;;;;;5070431;28;9648;-76
2023/08/03 23:25:36;;;;;;;;;8.67;8.00;;;;;;;;5070416;28;8795;-76
2023/08/03 23:28:02;;;;;;;;;11.00;9.33;;;;;;;;5070143;28;8942;-76
2023/08/03 23:30:27;;;;;;;;;7.67;7.33;;;;;;;;5069097;28;8847;-76
2023/08/03 23:32:52;;;;;;;;;7.33;7.33;;;;;;;;5070047;28;8968;-75
2023/08/03 23:35:18;;;;;;;;;9.00;7.33;;;;;;;;5070425;28;9491;-75
2023/08/03 23:37:43;;;;;;;;;10.00;8.00;;;;;;;;5070195;28;8808;-75
2023/08/03 23:40:08;;;;;;;;;9.67;8.00;;;;;;;;5070348;28;9656;-75
2023/08/03 23:42:34;;;;;;;;;7.00;7.00;;;;;;;;5069089;28;8830;-75
2023/08/03 23:45:00;;;;;;;;;3.00;2.00;;;;;;;;5070006;28;8768;-75
2023/08/03 23:47:25;;;;;;;;;6.75;4.75;;;;;;;;5068835;28;8866;-76
2023/08/03 23:49:51;;;;;;;;;6.00;5.00;;;;;;;;5070127;28;8792;-76
2023/08/03 23:52:16;;;;;;;;;5.00;3.00;;;;;;;;5070125;28;8817;-76
2023/08/03 23:54:41;;;;;;;;;4.33;2.33;;;;;;;;5070462;28;8808;-76
2023/08/03 23:57:07;;;;;;;;;2.00;2.00;;;;;;;;5068810;28;9604;-76
2023/08/03 23:59:32;;;;;;;;;1.00;1.00;;;;;;;;5070092;28;8851;-76
